sensor_id;sensor_type;location;lat;lon;timestamp;pressure;altitude;pressure_sealevel;temperature;humidity
3960;BME280;1994;48.640;8.894;2023-05-24T00:02:08;96420.38;;;14.97;72.64
3960;BME280;1994;48.640;8.894;2023-05-24T00:04:35;96424.50;;;14.88;73.15
3960;BME280;1994;48.640;8.894;2023-05-24T00:07:01;96423.47;;;14.89;73.21
3960;BME280;1994;48.640;8.894;2023-05-24T00:09:29;96425.28;;;14.88;73.25
3960;BME280;1994;48.640;8.894;2023-05-24T00:11:55;96422.34;;;14.80;72.83
3960;BME280;1994;48.640;8.894;2023-05-24T00:14:21;96419.75;;;14.80;72.85
3960;BME280;1994;48.640;8.894;2023-05-24T00:16:47;96422.63;;;14.83;72.44
3960;BME280;1994;48.640;8.894;2023-05-24T00:19:13;96422.88;;;14.77;72.32
3960;BME280;1994;48.640;8.894;2023-05-24T00:21:47;96418.72;;;14.81;71.65
3960;BME280;1994;48.640;8.894;2023-05-24T00:24:14;96421.31;;;14.81;72.15
3960;BME280;1994;48.640;8.894;2023-05-24T00:26:41;96418.16;;;14.74;72.31
3960;BME280;1994;48.640;8.894;2023-05-24T00:29:07;96418.38;;;14.67;72.29
3960;BME280;1994;48.640;8.894;2023-05-24T00:31:33;96421.25;;;14.66;72.59
3960;BME280;1994;48.640;8.894;2023-05-24T00:33:59;96407.38;;;14.60;73.05
3960;BME280;1994;48.640;8.894;2023-05-24T00:36:25;96410.22;;;14.59;72.62
3960;BME280;1994;48.640;8.894;2023-05-24T00:38:51;96401.63;;;14.58;72.75
3960;BME280;1994;48.640;8.894;2023-05-24T00:41:20;96401.84;;;14.52;73.27
3960;BME280;1994;48.640;8.894;2023-05-24T00:43:45;96414.31;;;14.45;73.61
3960;BME280;1994;48.640;8.894;2023-05-24T00:46:26;96413.31;;;14.51;72.90
3960;BME280;1994;48.640;8.894;2023-05-24T00:48:52;96417.53;;;14.57;73.01
3960;BME280;1994;48.640;8.894;2023-05-24T00:51:19;96404.97;;;14.54;71.98
3960;BME280;1994;48.640;8.894;2023-05-24T00:53:47;96398.78;;;14.65;71.52
3960;BME280;1994;48.640;8.894;2023-05-24T00:56:14;96404.78;;;14.60;71.73
3960;BME280;1994;48.640;8.894;2023-05-24T00:58:40;96412.72;;;14.39;71.25
3960;BME280;1994;48.640;8.894;2023-05-24T01:01:06;96407.47;;;14.34;71.95
3960;BME280;1994;48.640;8.894;2023-05-24T01:03:33;96406.47;;;14.40;71.85
3960;BME280;1994;48.640;8.894;2023-05-24T01:06:02;96411.63;;;14.35;72.26
3960;BME280;1994;48.640;8.894;2023-05-24T01:12:13;96407.53;;;14.17;72.45
3960;BME280;1994;48.640;8.894;2023-05-24T01:15:13;96406.28;;;14.20;72.30
3960;BME280;1994;48.640;8.894;2023-05-24T01:17:50;96414.19;;;14.30;72.24
3960;BME280;1994;48.640;8.894;2023-05-24T01:20:18;96410.59;;;14.36;72.17
3960;BME280;1994;48.640;8.894;2023-05-24T01:26:23;96410.78;;;14.29;71.81
3960;BME280;1994;48.640;8.894;2023-05-24T01:28:53;96406.91;;;14.32;71.42
3960;BME280;1994;48.640;8.894;2023-05-24T01:31:19;96412.66;;;14.34;71.23
3960;BME280;1994;48.640;8.894;2023-05-24T01:33:46;96410.03;;;14.29;71.28
3960;BME280;1994;48.640;8.894;2023-05-24T01:36:12;96406.28;;;14.20;71.05
3960;BME280;1994;48.640;8.894;2023-05-24T01:38:38;96411.50;;;14.20;70.40
3960;BME280;1994;48.640;8.894;2023-05-24T01:46:36;96400.47;;;14.13;70.86
3960;BME280;1994;48.640;8.894;2023-05-24T01:49:21;96409.81;;;14.09;70.17
3960;BME280;1994;48.640;8.894;2023-05-24T01:52:01;96408.78;;;14.10;69.63
3960;BME280;1994;48.640;8.894;2023-05-24T01:54:33;96404.00;;;13.97;70.07
3960;BME280;1994;48.640;8.894;2023-05-24T01:57:06;96404.53;;;13.99;69.98
3960;BME280;1994;48.640;8.894;2023-05-24T01:59:32;96406.88;;;14.00;69.93
3960;BME280;1994;48.640;8.894;2023-05-24T02:01:59;96412.22;;;13.84;70.08
3960;BME280;1994;48.640;8.894;2023-05-24T02:04:25;96407.94;;;13.73;70.25
3960;BME280;1994;48.640;8.894;2023-05-24T02:06:51;96416.81;;;13.77;70.42
3960;BME280;1994;48.640;8.894;2023-05-24T02:09:17;96411.22;;;13.63;70.60
3960;BME280;1994;48.640;8.894;2023-05-24T02:11:42;96409.34;;;13.59;70.66
3960;BME280;1994;48.640;8.894;2023-05-24T02:14:08;96402.69;;;13.68;70.72
3960;BME280;1994;48.640;8.894;2023-05-24T02:16:34;96403.66;;;13.62;70.79
3960;BME280;1994;48.640;8.894;2023-05-24T02:19:08;96406.00;;;13.63;70.78
3960;BME280;1994;48.640;8.894;2023-05-24T02:21:34;96403.16;;;13.65;71.09
3960;BME280;1994;48.640;8.894;2023-05-24T02:24:00;96401.00;;;13.57;70.74
3960;BME280;1994;48.640;8.894;2023-05-24T02:26:26;96394.22;;;13.56;71.04
3960;BME280;1994;48.640;8.894;2023-05-24T02:28:52;96392.63;;;13.55;70.86
3960;BME280;1994;48.640;8.894;2023-05-24T02:31:17;96400.25;;;13.61;71.00
3960;BME280;1994;48.640;8.894;2023-05-24T02:33:43;96396.09;;;13.60;70.96
3960;BME280;1994;48.640;8.894;2023-05-24T02:36:09;96404.94;;;13.59;70.85
3960;BME280;1994;48.640;8.894;2023-05-24T02:38:35;96407.97;;;13.51;70.74
3960;BME280;1994;48.640;8.894;2023-05-24T02:41:02;96413.47;;;13.55;70.99
3960;BME280;1994;48.640;8.894;2023-05-24T02:43:27;96408.16;;;13.45;70.94
3960;BME280;1994;48.640;8.894;2023-05-24T02:45:53;96411.66;;;13.55;70.68
3960;BME280;1994;48.640;8.894;2023-05-24T02:48:19;96414.09;;;13.40;70.43
3960;BME280;1994;48.640;8.894;2023-05-24T02:50:45;96407.84;;;13.41;71.02
3960;BME280;1994;48.640;8.894;2023-05-24T02:53:11;96404.53;;;13.46;70.80
3960;BME280;1994;48.640;8.894;2023-05-24T02:55:37;96407.19;;;13.51;70.29
3960;BME280;1994;48.640;8.894;2023-05-24T02:58:03;96418.19;;;13.58;70.33
3960;BME280;1994;48.640;8.894;2023-05-24T03:00:28;96413.97;;;13.52;70.05
3960;BME280;1994;48.640;8.894;2023-05-24T03:02:54;96407.50;;;13.54;70.17
3960;BME280;1994;48.640;8.894;2023-05-24T03:05:21;96409.25;;;13.49;70.36
3960;BME280;1994;48.640;8.894;2023-05-24T03:07:47;96411.41;;;13.57;70.44
3960;BME280;1994;48.640;8.894;2023-05-24T03:10:12;96405.41;;;13.56;70.12
3960;BME280;1994;48.640;8.894;2023-05-24T03:12:38;96410.84;;;13.55;70.07
3960;BME280;1994;48.640;8.894;2023-05-24T03:15:04;96411.00;;;13.43;70.98
3960;BME280;1994;48.640;8.894;2023-05-24T03:17:30;96409.75;;;13.46;70.42
3960;BME280;1994;48.640;8.894;2023-05-24T03:19:56;96411.31;;;13.25;70.21
3960;BME280;1994;48.640;8.894;2023-05-24T03:22:21;96406.00;;;13.37;70.84
3960;BME280;1994;48.640;8.894;2023-05-24T03:24:47;96411.50;;;13.40;70.51
3960;BME280;1994;48.640;8.894;2023-05-24T03:27:13;96412.75;;;13.38;70.67
3960;BME280;1994;48.640;8.894;2023-05-24T03:29:39;96407.19;;;13.29;71.28
3960;BME280;1994;48.640;8.894;2023-05-24T03:32:04;96399.69;;;13.33;71.09
3960;BME280;1994;48.640;8.894;2023-05-24T03:34:30;96407.56;;;13.38;70.59
3960;BME280;1994;48.640;8.894;2023-05-24T03:36:56;96407.94;;;13.25;71.33
3960;BME280;1994;48.640;8.894;2023-05-24T03:39:22;96398.50;;;13.19;70.97
3960;BME280;1994;48.640;8.894;2023-05-24T03:41:48;96406.53;;;13.17;70.71
3960;BME280;1994;48.640;8.894;2023-05-24T03:44:13;96401.75;;;13.31;70.96
3960;BME280;1994;48.640;8.894;2023-05-24T03:46:39;96408.41;;;13.22;70.52
3960;BME280;1994;48.640;8.894;2023-05-24T03:49:06;96412.03;;;13.21;70.33
3960;BME280;1994;48.640;8.894;2023-05-24T03:51:32;96411.56;;;13.24;70.00
3960;BME280;1994;48.640;8.894;2023-05-24T03:53:58;96414.09;;;13.19;70.57
3960;BME280;1994;48.640;8.894;2023-05-24T03:56:24;96408.66;;;12.99;71.21
3960;BME280;1994;48.640;8.894;2023-05-24T03:58:51;96416.50;;;13.04;71.60
3960;BME280;1994;48.640;8.894;2023-05-24T04:01:18;96413.00;;;13.15;71.14
3960;BME280;1994;48.640;8.894;2023-05-24T04:03:46;96417.72;;;13.18;71.54
3960;BME280;1994;48.640;8.894;2023-05-24T04:06:12;96407.22;;;13.08;71.16
3960;BME280;1994;48.640;8.894;2023-05-24T04:08:38;96402.00;;;13.08;71.04
3960;BME280;1994;48.640;8.894;2023-05-24T04:11:04;96401.50;;;13.11;70.72
3960;BME280;1994;48.640;8.894;2023-05-24T04:13:30;96407.22;;;13.08;71.27
3960;BME280;1994;48.640;8.894;2023-05-24T04:15:56;96396.50;;;12.88;71.14
3960;BME280;1994;48.640;8.894;2023-05-24T04:18:21;96405.50;;;12.80;71.73
3960;BME280;1994;48.640;8.894;2023-05-24T04:20:47;96399.03;;;12.83;71.58
3960;BME280;1994;48.640;8.894;2023-05-24T04:23:13;96405.50;;;12.97;71.17
3960;BME280;1994;48.640;8.894;2023-05-24T04:25:38;96395.00;;;12.92;71.60
3960;BME280;1994;48.640;8.894;2023-05-24T04:28:04;96398.72;;;12.96;71.82
3960;BME280;1994;48.640;8.894;2023-05-24T04:30:31;96392.56;;;13.02;71.56
3960;BME280;1994;48.640;8.894;2023-05-24T04:32:57;96397.13;;;12.95;71.62
3960;BME280;1994;48.640;8.894;2023-05-24T04:35:24;96402.19;;;12.85;71.59
3960;BME280;1994;48.640;8.894;2023-05-24T04:37:52;96408.28;;;12.74;72.10
3960;BME280;1994;48.640;8.894;2023-05-24T04:40:18;96408.97;;;12.86;72.07
3960;BME280;1994;48.640;8.894;2023-05-24T04:42:48;96404.91;;;12.73;72.10
3960;BME280;1994;48.640;8.894;2023-05-24T04:45:14;96422.88;;;12.75;72.50
3960;BME280;1994;48.640;8.894;2023-05-24T04:47:40;96406.78;;;12.78;72.28
3960;BME280;1994;48.640;8.894;2023-05-24T04:50:06;96408.34;;;12.79;72.17
3960;BME280;1994;48.640;8.894;2023-05-24T04:52:32;96410.56;;;12.70;72.26
3960;BME280;1994;48.640;8.894;2023-05-24T04:55:02;96419.09;;;12.66;72.85
3960;BME280;1994;48.640;8.894;2023-05-24T04:57:28;96422.53;;;12.71;72.89
3960;BME280;1994;48.640;8.894;2023-05-24T04:59:53;96417.53;;;12.65;72.84
3960;BME280;1994;48.640;8.894;2023-05-24T05:02:19;96423.03;;;12.68;72.76
3960;BME280;1994;48.640;8.894;2023-05-24T05:04:46;96424.91;;;12.73;73.51
3960;BME280;1994;48.640;8.894;2023-05-24T05:07:12;96429.28;;;12.89;72.86
3960;BME280;1994;48.640;8.894;2023-05-24T05:09:39;96433.72;;;12.88;72.87
3960;BME280;1994;48.640;8.894;2023-05-24T05:12:05;96431.88;;;12.89;72.67
3960;BME280;1994;48.640;8.894;2023-05-24T05:14:31;96427.72;;;12.88;72.28
3960;BME280;1994;48.640;8.894;2023-05-24T05:16:57;96426.81;;;12.77;73.08
3960;BME280;1994;48.640;8.894;2023-05-24T05:19:23;96431.50;;;12.80;72.70
3960;BME280;1994;48.640;8.894;2023-05-24T05:21:49;96432.59;;;12.84;72.96
3960;BME280;1994;48.640;8.894;2023-05-24T05:24:15;96430.53;;;12.86;73.13
3960;BME280;1994;48.640;8.894;2023-05-24T05:26:41;96430.72;;;12.80;72.85
3960;BME280;1994;48.640;8.894;2023-05-24T05:29:07;96430.72;;;12.80;73.42
3960;BME280;1994;48.640;8.894;2023-05-24T05:31:32;96426.59;;;12.84;72.94
3960;BME280;1994;48.640;8.894;2023-05-24T05:33:58;96431.88;;;12.89;72.99
3960;BME280;1994;48.640;8.894;2023-05-24T05:36:24;96429.22;;;12.84;72.35
3960;BME280;1994;48.640;8.894;2023-05-24T05:38:50;96425.84;;;12.83;72.62
3960;BME280;1994;48.640;8.894;2023-05-24T05:41:17;96428.19;;;12.85;72.90
3960;BME280;1994;48.640;8.894;2023-05-24T05:43:42;96426.91;;;12.87;72.47
3960;BME280;1994;48.640;8.894;2023-05-24T05:46:08;96425.03;;;12.83;72.52
3960;BME280;1994;48.640;8.894;2023-05-24T05:48:35;96431.41;;;12.92;72.51
3960;BME280;1994;48.640;8.894;2023-05-24T05:51:01;96437.38;;;12.92;72.07
3960;BME280;1994;48.640;8.894;2023-05-24T05:53:26;96437.38;;;12.92;71.94
3960;BME280;1994;48.640;8.894;2023-05-24T05:55:52;96434.72;;;12.87;71.86
3960;BME280;1994;48.640;8.894;2023-05-24T05:58:18;96441.41;;;13.00;72.36
3960;BME280;1994;48.640;8.894;2023-05-24T06:00:44;96436.22;;;13.00;72.02
3960;BME280;1994;48.640;8.894;2023-05-24T06:03:10;96440.94;;;13.03;71.57
3960;BME280;1994;48.640;8.894;2023-05-24T06:05:35;96437.53;;;13.19;72.38
3960;BME280;1994;48.640;8.894;2023-05-24T06:08:01;96439.50;;;13.12;71.57
3960;BME280;1994;48.640;8.894;2023-05-24T06:10:27;96431.75;;;13.17;71.28
3960;BME280;1994;48.640;8.894;2023-05-24T06:12:52;96431.69;;;13.12;71.36
3960;BME280;1994;48.640;8.894;2023-05-24T06:15:18;96427.50;;;13.11;72.10
3960;BME280;1994;48.640;8.894;2023-05-24T06:17:48;96428.13;;;13.18;71.33
3960;BME280;1994;48.640;8.894;2023-05-24T06:20:14;96432.38;;;13.24;71.22
3960;BME280;1994;48.640;8.894;2023-05-24T06:22:41;96433.94;;;13.25;70.94
3960;BME280;1994;48.640;8.894;2023-05-24T06:25:07;96431.59;;;13.23;70.44
3960;BME280;1994;48.640;8.894;2023-05-24T06:27:33;96431.28;;;13.20;70.43
3960;BME280;1994;48.640;8.894;2023-05-24T06:29:59;96429.09;;;13.12;72.13
3960;BME280;1994;48.640;8.894;2023-05-24T06:32:24;96433.75;;;13.31;71.76
3960;BME280;1994;48.640;8.894;2023-05-24T06:34:50;96441.81;;;13.30;71.26
3960;BME280;1994;48.640;8.894;2023-05-24T06:37:16;96437.59;;;13.24;71.03
3960;BME280;1994;48.640;8.894;2023-05-24T06:39:42;96436.47;;;13.41;71.10
3960;BME280;1994;48.640;8.894;2023-05-24T06:42:08;96439.88;;;13.42;70.17
3960;BME280;1994;48.640;8.894;2023-05-24T06:44:33;96440.06;;;13.57;69.72
3960;BME280;1994;48.640;8.894;2023-05-24T06:47:00;96451.00;;;13.59;69.16
3960;BME280;1994;48.640;8.894;2023-05-24T06:49:26;96450.41;;;13.52;70.12
3960;BME280;1994;48.640;8.894;2023-05-24T06:51:52;96451.06;;;13.42;69.79
3960;BME280;1994;48.640;8.894;2023-05-24T06:54:18;96447.06;;;13.56;69.80
3960;BME280;1994;48.640;8.894;2023-05-24T06:56:43;96447.91;;;13.62;68.97
3960;BME280;1994;48.640;8.894;2023-05-24T06:59:09;96456.25;;;13.42;69.71
3960;BME280;1994;48.640;8.894;2023-05-24T07:01:35;96449.06;;;13.49;70.41
3960;BME280;1994;48.640;8.894;2023-05-24T07:04:05;96446.41;;;13.44;69.82
3960;BME280;1994;48.640;8.894;2023-05-24T07:06:30;96453.41;;;13.65;69.54
3960;BME280;1994;48.640;8.894;2023-05-24T07:08:58;96447.34;;;13.81;69.70
3960;BME280;1994;48.640;8.894;2023-05-24T07:11:27;96460.88;;;13.83;69.08
3960;BME280;1994;48.640;8.894;2023-05-24T07:13:53;96461.63;;;13.79;68.47
3960;BME280;1994;48.640;8.894;2023-05-24T07:16:18;96466.63;;;13.85;69.60
3960;BME280;1994;48.640;8.894;2023-05-24T07:18:44;96470.94;;;13.75;68.22
3960;BME280;1994;48.640;8.894;2023-05-24T07:21:10;96466.53;;;13.75;68.28
3960;BME280;1994;48.640;8.894;2023-05-24T07:23:36;96473.63;;;13.80;68.96
3960;BME280;1994;48.640;8.894;2023-05-24T07:26:03;96478.72;;;13.70;69.53
3960;BME280;1994;48.640;8.894;2023-05-24T07:28:29;96479.28;;;13.77;69.54
3960;BME280;1994;48.640;8.894;2023-05-24T07:30:55;96487.50;;;13.64;68.83
3960;BME280;1994;48.640;8.894;2023-05-24T07:33:21;96488.81;;;13.45;70.19
3960;BME280;1994;48.640;8.894;2023-05-24T07:35:46;96490.69;;;13.71;70.57
3960;BME280;1994;48.640;8.894;2023-05-24T07:38:17;96489.44;;;13.52;69.51
3960;BME280;1994;48.640;8.894;2023-05-24T07:40:43;96486.63;;;13.58;70.08
3960;BME280;1994;48.640;8.894;2023-05-24T07:43:08;96492.69;;;13.64;70.18
3960;BME280;1994;48.640;8.894;2023-05-24T07:45:34;96497.16;;;13.68;69.91
3960;BME280;1994;48.640;8.894;2023-05-24T07:48:00;96500.06;;;13.72;69.83
3960;BME280;1994;48.640;8.894;2023-05-24T07:50:26;96492.16;;;13.62;69.90
3960;BME280;1994;48.640;8.894;2023-05-24T07:52:55;96504.84;;;13.58;70.04
3960;BME280;1994;48.640;8.894;2023-05-24T07:55:21;96502.44;;;13.52;69.32
3960;BME280;1994;48.640;8.894;2023-05-24T07:57:47;96499.91;;;13.57;69.81
3960;BME280;1994;48.640;8.894;2023-05-24T08:00:13;96506.50;;;13.43;70.07
3960;BME280;1994;48.640;8.894;2023-05-24T08:02:42;96504.44;;;13.45;69.26
3960;BME280;1994;48.640;8.894;2023-05-24T08:05:12;96503.88;;;13.43;69.29
3960;BME280;1994;48.640;8.894;2023-05-24T08:07:37;96500.88;;;13.51;69.37
3960;BME280;1994;48.640;8.894;2023-05-24T08:10:05;96503.34;;;13.62;69.63
3960;BME280;1994;48.640;8.894;2023-05-24T08:12:31;96509.47;;;13.73;68.24
3960;BME280;1994;48.640;8.894;2023-05-24T08:14:57;96513.19;;;13.82;69.30
3960;BME280;1994;48.640;8.894;2023-05-24T08:17:23;96511.88;;;14.01;68.38
3960;BME280;1994;48.640;8.894;2023-05-24T08:19:49;96520.78;;;14.10;67.83
3960;BME280;1994;48.640;8.894;2023-05-24T08:22:15;96519.47;;;14.29;67.21
3960;BME280;1994;48.640;8.894;2023-05-24T08:24:41;96521.03;;;14.30;66.88
3960;BME280;1994;48.640;8.894;2023-05-24T08:27:06;96520.03;;;14.36;66.66
3960;BME280;1994;48.640;8.894;2023-05-24T08:29:34;96530.56;;;14.46;66.62
3960;BME280;1994;48.640;8.894;2023-05-24T08:32:00;96517.06;;;14.54;66.62
3960;BME280;1994;48.640;8.894;2023-05-24T08:34:25;96527.47;;;14.49;66.25
3960;BME280;1994;48.640;8.894;2023-05-24T08:36:52;96514.44;;;14.49;65.16
3960;BME280;1994;48.640;8.894;2023-05-24T08:39:19;96524.94;;;14.59;65.18
3960;BME280;1994;48.640;8.894;2023-05-24T08:41:45;96529.94;;;14.65;64.57
3960;BME280;1994;48.640;8.894;2023-05-24T08:44:12;96535.06;;;14.82;66.53
3960;BME280;1994;48.640;8.894;2023-05-24T08:46:38;96527.22;;;14.82;65.17
3960;BME280;1994;48.640;8.894;2023-05-24T08:49:04;96528.75;;;14.78;65.41
3960;BME280;1994;48.640;8.894;2023-05-24T08:51:32;96524.25;;;15.05;64.31
3960;BME280;1994;48.640;8.894;2023-05-24T08:53:58;96528.47;;;15.11;64.13
3960;BME280;1994;48.640;8.894;2023-05-24T08:56:25;96536.69;;;14.93;63.84
3960;BME280;1994;48.640;8.894;2023-05-24T08:58:54;96533.97;;;14.78;64.85
3960;BME280;1994;48.640;8.894;2023-05-24T09:01:20;96525.59;;;14.76;65.16
3960;BME280;1994;48.640;8.894;2023-05-24T09:03:47;96529.41;;;14.95;65.08
3960;BME280;1994;48.640;8.894;2023-05-24T09:06:16;96534.81;;;15.25;63.92
3960;BME280;1994;48.640;8.894;2023-05-24T09:08:42;96533.44;;;15.54;63.66
3960;BME280;1994;48.640;8.894;2023-05-24T09:11:10;96530.25;;;15.42;62.93
3960;BME280;1994;48.640;8.894;2023-05-24T09:13:36;96530.53;;;15.45;62.02
3960;BME280;1994;48.640;8.894;2023-05-24T09:16:05;96530.38;;;15.72;61.71
3960;BME280;1994;48.640;8.894;2023-05-24T09:18:31;96524.16;;;15.83;60.92
3960;BME280;1994;48.640;8.894;2023-05-24T09:20:56;96523.41;;;15.97;60.29
3960;BME280;1994;48.640;8.894;2023-05-24T09:23:25;96524.78;;;16.15;60.07
3960;BME280;1994;48.640;8.894;2023-05-24T09:25:51;96524.47;;;15.96;58.36
3960;BME280;1994;48.640;8.894;2023-05-24T09:28:18;96518.88;;;15.73;58.66
3960;BME280;1994;48.640;8.894;2023-05-24T09:30:57;96528.28;;;15.64;59.12
3960;BME280;1994;48.640;8.894;2023-05-24T09:33:31;96532.97;;;15.67;60.01
3960;BME280;1994;48.640;8.894;2023-05-24T09:36:00;96531.91;;;15.63;59.36
3960;BME280;1994;48.640;8.894;2023-05-24T09:38:26;96533.53;;;15.69;59.71
3960;BME280;1994;48.640;8.894;2023-05-24T09:41:02;96536.03;;;15.49;58.47
3960;BME280;1994;48.640;8.894;2023-05-24T09:43:33;96542.66;;;15.30;59.72
3960;BME280;1994;48.640;8.894;2023-05-24T09:46:03;96545.75;;;15.22;60.13
3960;BME280;1994;48.640;8.894;2023-05-24T09:48:29;96534.25;;;15.18;59.36
3960;BME280;1994;48.640;8.894;2023-05-24T09:51:03;96531.09;;;15.16;58.61
3960;BME280;1994;48.640;8.894;2023-05-24T09:53:32;96525.91;;;15.16;59.31
3960;BME280;1994;48.640;8.894;2023-05-24T09:55:58;96529.59;;;15.25;58.90
3960;BME280;1994;48.640;8.894;2023-05-24T09:58:30;96523.66;;;14.93;60.03
3960;BME280;1994;48.640;8.894;2023-05-24T10:01:09;96535.69;;;14.99;60.57
3960;BME280;1994;48.640;8.894;2023-05-24T10:03:35;96534.06;;;14.88;59.98
3960;BME280;1994;48.640;8.894;2023-05-24T10:06:04;96533.00;;;14.89;61.19
3960;BME280;1994;48.640;8.894;2023-05-24T10:08:35;96537.75;;;14.97;61.36
3960;BME280;1994;48.640;8.894;2023-05-24T10:11:04;96533.13;;;15.04;60.87
3960;BME280;1994;48.640;8.894;2023-05-24T10:13:32;96541.22;;;15.07;60.07
3960;BME280;1994;48.640;8.894;2023-05-24T10:16:02;96539.69;;;15.11;59.28
3960;BME280;1994;48.640;8.894;2023-05-24T10:18:28;96533.63;;;15.01;59.86
3960;BME280;1994;48.640;8.894;2023-05-24T10:20:55;96530.09;;;15.22;60.82
3960;BME280;1994;48.640;8.894;2023-05-24T10:23:28;96538.41;;;15.19;59.22
3960;BME280;1994;48.640;8.894;2023-05-24T10:26:07;96539.38;;;15.08;59.19
3960;BME280;1994;48.640;8.894;2023-05-24T10:28:44;96541.03;;;15.19;58.58
3960;BME280;1994;48.640;8.894;2023-05-24T10:31:16;96534.19;;;15.08;57.79
3960;BME280;1994;48.640;8.894;2023-05-24T10:33:44;96539.97;;;15.15;58.33
3960;BME280;1994;48.640;8.894;2023-05-24T10:36:12;96542.63;;;15.20;58.63
3960;BME280;1994;48.640;8.894;2023-05-24T10:38:39;96533.22;;;15.24;59.99
3960;BME280;1994;48.640;8.894;2023-05-24T10:41:08;96535.25;;;15.12;59.04
3960;BME280;1994;48.640;8.894;2023-05-24T10:43:34;96532.16;;;14.83;60.89
3960;BME280;1994;48.640;8.894;2023-05-24T10:46:02;96532.53;;;14.97;60.86
3960;BME280;1994;48.640;8.894;2023-05-24T10:50:55;96532.75;;;14.59;61.47
3960;BME280;1994;48.640;8.894;2023-05-24T10:53:26;96533.31;;;14.61;62.41
3960;BME280;1994;48.640;8.894;2023-05-24T10:55:55;96528.09;;;14.61;62.18
3960;BME280;1994;48.640;8.894;2023-05-24T10:58:57;96531.22;;;14.63;62.06
3960;BME280;1994;48.640;8.894;2023-05-24T11:01:28;96533.13;;;14.41;61.49
3960;BME280;1994;48.640;8.894;2023-05-24T11:04:10;96532.09;;;14.42;62.38
3960;BME280;1994;48.640;8.894;2023-05-24T11:07:09;96529.00;;;14.45;60.86
3960;BME280;1994;48.640;8.894;2023-05-24T11:09:37;96536.88;;;14.50;61.72
3960;BME280;1994;48.640;8.894;2023-05-24T11:12:16;96533.78;;;14.58;62.58
3960;BME280;1994;48.640;8.894;2023-05-24T11:14:50;96529.56;;;14.52;61.20
3960;BME280;1994;48.640;8.894;2023-05-24T11:17:20;96526.41;;;14.45;59.87
3960;BME280;1994;48.640;8.894;2023-05-24T11:19:53;96520.22;;;14.56;60.49
3960;BME280;1994;48.640;8.894;2023-05-24T11:22:22;96524.88;;;14.49;59.74
3960;BME280;1994;48.640;8.894;2023-05-24T11:24:50;96519.06;;;14.42;60.02
3960;BME280;1994;48.640;8.894;2023-05-24T11:27:16;96515.88;;;14.35;59.18
3960;BME280;1994;48.640;8.894;2023-05-24T11:29:44;96517.53;;;14.46;58.76
3960;BME280;1994;48.640;8.894;2023-05-24T11:32:15;96513.50;;;14.65;59.46
3960;BME280;1994;48.640;8.894;2023-05-24T11:34:41;96517.28;;;14.79;59.88
3960;BME280;1994;48.640;8.894;2023-05-24T11:37:09;96513.47;;;14.91;60.89
3960;BME280;1994;48.640;8.894;2023-05-24T11:39:36;96510.16;;;15.06;60.09
3960;BME280;1994;48.640;8.894;2023-05-24T11:42:06;96505.03;;;15.16;58.88
3960;BME280;1994;48.640;8.894;2023-05-24T11:44:34;96504.66;;;15.02;59.14
3960;BME280;1994;48.640;8.894;2023-05-24T11:47:05;96502.13;;;15.54;58.14
3960;BME280;1994;48.640;8.894;2023-05-24T11:49:31;96505.91;;;15.93;58.24
3960;BME280;1994;48.640;8.894;2023-05-24T11:51:58;96503.34;;;16.13;56.44
3960;BME280;1994;48.640;8.894;2023-05-24T11:54:26;96494.28;;;16.45;54.48
3960;BME280;1994;48.640;8.894;2023-05-24T11:56:53;96498.41;;;16.21;53.29
3960;BME280;1994;48.640;8.894;2023-05-24T11:59:24;96504.13;;;16.18;52.97
3960;BME280;1994;48.640;8.894;2023-05-24T12:02:03;96500.50;;;16.29;53.20
3960;BME280;1994;48.640;8.894;2023-05-24T12:04:31;96493.22;;;16.71;52.77
3960;BME280;1994;48.640;8.894;2023-05-24T12:06:58;96495.53;;;17.23;50.92
3960;BME280;1994;48.640;8.894;2023-05-24T12:09:24;96491.00;;;18.07;47.77
3960;BME280;1994;48.640;8.894;2023-05-24T12:11:51;96491.13;;;18.35;46.58
3960;BME280;1994;48.640;8.894;2023-05-24T12:14:38;96485.09;;;16.83;49.32
3960;BME280;1994;48.640;8.894;2023-05-24T12:17:04;96480.06;;;17.21;47.66
3960;BME280;1994;48.640;8.894;2023-05-24T12:19:31;96481.63;;;17.17;47.31
3960;BME280;1994;48.640;8.894;2023-05-24T12:22:03;96485.56;;;17.20;46.82
3960;BME280;1994;48.640;8.894;2023-05-24T12:24:30;96481.28;;;17.59;45.39
3960;BME280;1994;48.640;8.894;2023-05-24T12:27:02;96483.03;;;18.27;46.27
3960;BME280;1994;48.640;8.894;2023-05-24T12:29:36;96472.09;;;18.15;45.50
3960;BME280;1994;48.640;8.894;2023-05-24T12:32:04;96472.75;;;17.92;47.26
3960;BME280;1994;48.640;8.894;2023-05-24T12:34:31;96467.13;;;17.65;47.57
3960;BME280;1994;48.640;8.894;2023-05-24T12:36:58;96476.59;;;17.56;47.87
3960;BME280;1994;48.640;8.894;2023-05-24T12:39:26;96475.31;;;18.02;46.70
3960;BME280;1994;48.640;8.894;2023-05-24T12:42:00;96469.44;;;18.58;45.83
3960;BME280;1994;48.640;8.894;2023-05-24T12:44:36;96479.06;;;18.34;45.38
3960;BME280;1994;48.640;8.894;2023-05-24T12:47:05;96469.53;;;18.43;44.49
3960;BME280;1994;48.640;8.894;2023-05-24T12:49:32;96474.47;;;18.83;43.59
3960;BME280;1994;48.640;8.894;2023-05-24T12:51:58;96462.22;;;19.02;42.38
3960;BME280;1994;48.640;8.894;2023-05-24T12:54:26;96451.84;;;19.16;42.28
3960;BME280;1994;48.640;8.894;2023-05-24T12:56:53;96456.06;;;18.88;42.95
3960;BME280;1994;48.640;8.894;2023-05-24T12:59:20;96459.81;;;19.34;41.16
3960;BME280;1994;48.640;8.894;2023-05-24T13:01:45;96455.78;;;19.42;39.97
3960;BME280;1994;48.640;8.894;2023-05-24T13:04:16;96462.34;;;19.86;37.59
3960;BME280;1994;48.640;8.894;2023-05-24T13:06:43;96454.56;;;20.18;39.34
3960;BME280;1994;48.640;8.894;2023-05-24T13:09:08;96454.72;;;20.59;38.96
3960;BME280;1994;48.640;8.894;2023-05-24T13:11:35;96454.22;;;20.89;38.59
3960;BME280;1994;48.640;8.894;2023-05-24T13:14:02;96453.38;;;21.20;38.89
3960;BME280;1994;48.640;8.894;2023-05-24T13:16:28;96451.09;;;20.87;37.87
3960;BME280;1994;48.640;8.894;2023-05-24T13:18:54;96447.31;;;19.68;40.58
3960;BME280;1994;48.640;8.894;2023-05-24T13:21:20;96441.16;;;19.96;41.04
3960;BME280;1994;48.640;8.894;2023-05-24T13:23:46;96446.56;;;20.74;39.85
3960;BME280;1994;48.640;8.894;2023-05-24T13:26:12;96445.75;;;20.60;39.25
3960;BME280;1994;48.640;8.894;2023-05-24T13:28:37;96433.81;;;20.49;38.71
3960;BME280;1994;48.640;8.894;2023-05-24T13:31:04;96441.53;;;20.27;39.24
3960;BME280;1994;48.640;8.894;2023-05-24T13:33:32;96427.00;;;19.74;40.07
3960;BME280;1994;48.640;8.894;2023-05-24T13:35:58;96434.66;;;19.52;41.02
3960;BME280;1994;48.640;8.894;2023-05-24T13:38:24;96439.06;;;18.81;41.82
3960;BME280;1994;48.640;8.894;2023-05-24T13:40:51;96424.69;;;19.02;41.47